Time;durP1;ratioP1;P1;durP2;ratioP2;P2;SDS_P1;SDS_P2;PMS_P1;PMS_P2;Temp;Humidity;BMP_temperature;BMP_pressure;BME280_temperature;BME280_humidity;BME280_pressure;Samples;Min_cycle;Max_cycle;Signal;HPM_P1;HPM_P2
2022/03/08 00:00:22;;;;;;;12.77;5.28;;;0.60;99.90;;;;;;5056617;28;20100;-60
2022/03/08 00:02:48;;;;;;;8.93;4.80;;;1.10;99.90;;;;;;5056607;28;20032;-60
2022/03/08 00:05:14;;;;;;;8.82;5.00;;;0.70;99.90;;;;;;5055249;28;20100;-60
2022/03/08 00:07:41;;;;;;;12.57;5.28;;;0.50;99.90;;;;;;5056050;28;20056;-60
2022/03/08 00:10:08;;;;;;;10.27;5.85;;;0.30;99.90;;;;;;5056401;28;20484;-60
2022/03/08 00:12:34;;;;;;;7.38;4.57;;;0.30;99.90;;;;;;5055441;28;20385;-60
2022/03/08 00:15:00;;;;;;;9.25;4.82;;;0.20;99.90;;;;;;5056486;28;20469;-60
2022/03/08 00:17:26;;;;;;;9.32;4.78;;;0.10;99.90;;;;;;5054988;28;20078;-60
2022/03/08 00:19:52;;;;;;;8.43;4.53;;;0.00;99.90;;;;;;5055006;28;20029;-60
2022/03/08 00:22:18;;;;;;;8.30;4.68;;;0.90;99.90;;;;;;5056125;28;20057;-60
2022/03/08 00:24:44;;;;;;;7.55;4.57;;;-0.20;99.90;;;;;;5056373;28;20102;-60
2022/03/08 00:27:09;;;;;;;11.88;4.95;;;1.40;99.90;;;;;;5055979;28;20029;-60
2022/03/08 00:29:35;;;;;;;7.45;4.57;;;-0.40;99.90;;;;;;5054756;28;20053;-61
2022/03/08 00:32:01;;;;;;;9.40;5.32;;;-0.10;99.90;;;;;;5055710;28;20025;-60
2022/03/08 00:34:26;;;;;;;12.57;6.13;;;-0.30;99.90;;;;;;5056350;28;20473;-60
2022/03/08 00:36:52;;;;;;;14.18;5.60;;;-0.60;99.90;;;;;;5055837;28;20489;-60
2022/03/08 00:39:18;;;;;;;12.38;5.65;;;0.40;99.90;;;;;;5055932;28;20477;-60
2022/03/08 00:41:44;;;;;;;11.90;5.88;;;0.70;99.90;;;;;;5055920;28;20021;-60
2022/03/08 00:44:10;;;;;;;10.38;5.05;;;0.50;99.90;;;;;;5055760;28;20033;-60
2022/03/08 00:46:36;;;;;;;9.88;5.88;;;-0.50;99.90;;;;;;5055700;28;20094;-61
2022/03/08 00:49:02;;;;;;;11.05;5.60;;;-0.60;99.90;;;;;;5055700;28;20028;-60
2022/03/08 00:51:28;;;;;;;12.70;5.85;;;-0.70;99.90;;;;;;5055658;28;20029;-60
2022/03/08 00:53:54;;;;;;;11.27;5.13;;;1.40;99.90;;;;;;5055783;28;20029;-60
2022/03/08 00:56:19;;;;;;;10.57;4.80;;;-0.60;99.90;;;;;;5055118;28;20029;-60
2022/03/08 00:58:45;;;;;;;14.82;5.88;;;-0.80;99.90;;;;;;5055217;28;20040;-60
2022/03/08 01:01:11;;;;;;;12.20;5.10;;;1.10;99.90;;;;;;5055159;28;20024;-60
2022/03/08 01:03:36;;;;;;;10.05;5.15;;;0.00;99.90;;;;;;5055382;28;20029;-60
2022/03/08 01:06:02;;;;;;;9.35;5.25;;;-0.80;99.90;;;;;;5055279;28;20033;-61
2022/03/08 01:08:28;;;;;;;12.60;5.93;;;-0.90;99.90;;;;;;5055168;28;20439;-60
2022/03/08 01:10:53;;;;;;;9.18;5.80;;;-0.90;99.90;;;;;;5053931;28;20078;-60
2022/03/08 01:13:19;;;;;;;11.20;5.72;;;-0.90;99.90;;;;;;5055494;28;20029;-60
2022/03/08 01:15:45;;;;;;;12.73;5.90;;;0.70;99.90;;;;;;5055048;28;20437;-60
2022/03/08 01:18:11;;;;;;;11.80;5.95;;;-1.00;99.90;;;;;;5055081;28;20100;-60
2022/03/08 01:20:37;;;;;;;17.27;6.15;;;-1.00;99.90;;;;;;5053819;28;20032;-60
2022/03/08 01:23:03;;;;;;;12.13;5.55;;;-1.10;99.90;;;;;;5053737;28;20427;-60
2022/03/08 01:25:29;;;;;;;9.90;5.70;;;-1.10;99.90;;;;;;5054443;28;20115;-60
2022/03/08 01:27:55;;;;;;;12.65;5.63;;;-1.10;99.90;;;;;;5055185;28;20385;-60
2022/03/08 01:30:23;;;;;;;13.02;6.07;;;0.80;99.90;;;;;;5054860;28;20029;-60
2022/03/08 01:33:08;;;;;;;15.23;5.80;;;-1.00;99.90;;;;;;5054824;28;20104;-60
2022/03/08 01:35:34;;;;;;;17.98;6.63;;;-1.00;99.90;;;;;;5053765;28;20473;-60
2022/03/08 01:37:59;;;;;;;14.93;6.75;;;-1.20;99.90;;;;;;5053426;28;20082;-60
2022/03/08 01:40:25;;;;;;;16.02;6.90;;;-1.30;99.90;;;;;;5053391;28;20163;-61
2022/03/08 01:42:51;;;;;;;14.82;6.72;;;-1.30;99.90;;;;;;5054624;28;20025;-60
2022/03/08 01:45:36;;;;;;;20.70;7.60;;;-0.90;99.90;;;;;;5053293;28;20029;-60
2022/03/08 01:48:02;;;;;;;13.20;6.80;;;-1.30;99.90;;;;;;5054900;28;20033;-60
2022/03/08 01:50:27;;;;;;;13.73;6.88;;;-1.30;99.90;;;;;;5054574;28;20037;-60
2022/03/08 01:52:53;;;;;;;14.65;6.55;;;-0.40;99.90;;;;;;5054413;28;20032;-60
2022/03/08 01:55:20;;;;;;;11.93;6.55;;;-1.20;99.90;;;;;;5054360;28;20113;-60
2022/03/08 01:57:47;;;;;;;15.35;7.18;;;-1.20;99.90;;;;;;5054657;28;20033;-60
2022/03/08 02:00:16;;;;;;;13.48;6.97;;;-1.20;99.90;;;;;;5054637;28;20033;-60
2022/03/08 02:02:43;;;;;;;16.67;6.95;;;-1.20;99.90;;;;;;5054310;28;20032;-60
2022/03/08 02:05:09;;;;;;;11.30;5.78;;;0.20;99.90;;;;;;5054073;28;20076;-60
2022/03/08 02:07:54;;;;;;;12.73;6.63;;;-1.10;99.90;;;;;;5054274;28;20110;-59
2022/03/08 02:10:20;;;;;;;12.82;6.53;;;0.40;99.90;;;;;;5053870;28;20453;-60
2022/03/08 02:12:45;;;;;;;15.88;7.10;;;-0.80;99.90;;;;;;5054132;28;20056;-60
2022/03/08 02:15:25;;;;;;;16.77;7.40;;;-1.00;99.90;;;;;;5054251;28;20082;-60
2022/03/08 02:17:53;;;;;;;16.75;7.32;;;-0.40;99.90;;;;;;5052821;28;20025;-60
2022/03/08 02:20:19;;;;;;;18.43;6.87;;;-1.10;99.90;;;;;;5054278;28;20032;-60
2022/03/08 02:22:47;;;;;;;18.85;7.68;;;-1.10;99.90;;;;;;5053667;28;20029;-60
2022/03/08 02:25:14;;;;;;;12.52;6.18;;;-0.20;99.90;;;;;;5052666;28;20029;-60
2022/03/08 02:27:42;;;;;;;15.05;7.40;;;0.90;99.90;;;;;;5053911;28;20017;-60
2022/03/08 02:30:10;;;;;;;19.90;7.72;;;0.50;99.90;;;;;;5053852;28;20025;-60
2022/03/08 02:32:36;;;;;;;19.60;7.37;;;-1.30;99.90;;;;;;5054170;28;20056;-60
2022/03/08 02:35:22;;;;;;;16.33;7.38;;;0.10;99.90;;;;;;5053308;28;20087;-60
2022/03/08 02:37:55;;;;;;;15.50;6.90;;;-1.50;99.90;;;;;;5053251;28;20040;-60
2022/03/08 02:40:23;;;;;;;14.10;7.53;;;-1.60;99.90;;;;;;5053789;28;20453;-59
2022/03/08 02:42:49;;;;;;;14.27;6.45;;;-0.10;99.90;;;;;;5054012;28;20025;-60
2022/03/08 02:45:16;;;;;;;13.32;6.95;;;-1.60;99.90;;;;;;5053394;28;20040;-60
2022/03/08 02:47:42;;;;;;;14.93;6.93;;;-1.70;99.90;;;;;;5053695;28;20021;-60
2022/03/08 02:50:11;;;;;;;15.80;7.68;;;-1.00;99.90;;;;;;5053652;28;20029;-60
2022/03/08 02:52:37;;;;;;;13.10;7.05;;;0.10;99.90;;;;;;5053681;28;20461;-60
2022/03/08 02:55:04;;;;;;;15.45;7.10;;;0.60;99.90;;;;;;5052223;28;20485;-60
2022/03/08 02:57:30;;;;;;;13.25;6.97;;;-1.70;99.90;;;;;;5053320;28;20090;-60
2022/03/08 02:59:56;;;;;;;15.10;7.32;;;0.20;99.90;;;;;;5052690;28;20029;-60
2022/03/08 03:02:22;;;;;;;13.45;7.43;;;-1.60;99.90;;;;;;5052262;28;20021;-60
2022/03/08 03:04:48;;;;;;;15.40;7.20;;;-1.60;99.90;;;;;;5053200;28;20025;-60
2022/03/08 03:07:16;;;;;;;14.43;7.60;;;0.00;99.90;;;;;;5053055;28;20051;-59
2022/03/08 03:09:42;;;;;;;13.00;6.72;;;-0.70;99.90;;;;;;5053455;28;20036;-60
2022/03/08 03:12:08;;;;;;;17.90;7.53;;;-0.40;99.90;;;;;;5053546;28;20420;-60
2022/03/08 03:14:34;;;;;;;18.85;7.55;;;0.10;99.90;;;;;;5053425;28;20037;-61
2022/03/08 03:17:00;;;;;;;15.60;7.70;;;-1.30;99.90;;;;;;5052669;28;20084;-60
2022/03/08 03:19:26;;;;;;;14.63;7.10;;;1.00;99.90;;;;;;5052097;28;20037;-60
2022/03/08 03:21:51;;;;;;;12.88;6.47;;;0.10;99.90;;;;;;5053341;28;20100;-60
2022/03/08 03:24:17;;;;;;;12.82;6.75;;;0.40;99.90;;;;;;5052093;28;20423;-60
2022/03/08 03:26:43;;;;;;;13.07;6.35;;;-0.90;99.90;;;;;;5053670;28;20025;-60
2022/03/08 03:29:09;;;;;;;13.20;6.88;;;-0.80;99.90;;;;;;5053308;28;20025;-60
2022/03/08 03:31:35;;;;;;;14.05;6.50;;;-0.10;99.90;;;;;;5052535;28;20025;-60
2022/03/08 03:34:01;;;;;;;15.07;7.70;;;-0.60;99.90;;;;;;5053252;28;20480;-60
2022/03/08 03:36:26;;;;;;;13.00;7.10;;;0.20;99.90;;;;;;5053430;28;20029;-60
2022/03/08 03:38:53;;;;;;;13.75;7.32;;;-0.60;99.90;;;;;;5052887;28;20370;-60
2022/03/08 03:41:19;;;;;;;15.07;6.97;;;1.10;99.90;;;;;;5053180;28;20032;-60
2022/03/08 03:43:44;;;;;;;14.73;7.32;;;0.10;99.90;;;;;;5053185;28;20021;-60
2022/03/08 03:46:10;;;;;;;13.70;7.90;;;-0.40;99.90;;;;;;5053149;28;20487;-60
2022/03/08 03:48:36;;;;;;;13.52;6.95;;;-0.40;99.90;;;;;;5054474;28;20028;-60
2022/03/08 03:51:02;;;;;;;12.88;6.70;;;0.50;99.90;;;;;;5055989;28;20116;-60
2022/03/08 03:53:27;;;;;;;12.15;6.63;;;-0.40;99.90;;;;;;5056449;28;20492;-60
2022/03/08 03:55:53;;;;;;;12.50;7.20;;;1.20;99.90;;;;;;5056589;28;20033;-63
2022/03/08 03:58:19;;;;;;;13.48;6.85;;;0.40;99.90;;;;;;5055353;28;20029;-60
2022/03/08 04:00:44;;;;;;;14.45;7.18;;;0.50;99.90;;;;;;5056594;28;20031;-60
2022/03/08 04:03:10;;;;;;;13.55;6.60;;;-0.20;99.90;;;;;;5056930;28;20029;-60
2022/03/08 04:05:36;;;;;;;12.75;6.43;;;0.30;99.90;;;;;;5056574;28;20025;-60
2022/03/08 04:08:01;;;;;;;13.48;6.63;;;1.20;99.90;;;;;;5056589;28;20084;-60
2022/03/08 04:10:27;;;;;;;12.85;7.40;;;-0.10;99.90;;;;;;5056440;28;20395;-60
2022/03/08 04:12:53;;;;;;;12.70;7.28;;;1.20;99.90;;;;;;5056349;28;20043;-60
2022/03/08 04:15:18;;;;;;;12.82;7.45;;;-0.20;99.90;;;;;;5056199;28;20115;-60
2022/03/08 04:17:44;;;;;;;15.13;7.45;;;-0.30;99.90;;;;;;5056341;28;20040;-60
2022/03/08 04:20:11;;;;;;;16.88;7.38;;;0.20;99.90;;;;;;5055122;28;20025;-60
2022/03/08 04:22:37;;;;;;;13.70;7.05;;;-0.40;99.90;;;;;;5055917;28;20028;-60
2022/03/08 04:25:04;;;;;;;11.20;6.43;;;-0.50;99.90;;;;;;5054996;28;20392;-60
2022/03/08 04:27:29;;;;;;;14.50;7.60;;;-0.50;99.90;;;;;;5056171;28;20436;-60
2022/03/08 04:29:55;;;;;;;11.38;7.05;;;1.50;99.90;;;;;;5054761;28;20029;-60
2022/03/08 04:32:21;;;;;;;13.60;7.60;;;0.60;99.90;;;;;;5055917;28;20028;-60
2022/03/08 04:34:47;;;;;;;12.73;6.82;;;-0.70;99.90;;;;;;5055895;28;20032;-60
2022/03/08 04:37:12;;;;;;;13.70;6.93;;;-0.80;99.90;;;;;;5056335;28;20385;-61
2022/03/08 04:39:38;;;;;;;12.88;7.10;;;0.50;99.90;;;;;;5054579;28;20026;-60
2022/03/08 04:42:04;;;;;;;14.85;8.07;;;0.90;99.90;;;;;;5054531;28;20025;-60
2022/03/08 04:44:30;;;;;;;14.35;7.00;;;-1.00;99.90;;;;;;5055753;28;20036;-60
2022/03/08 04:46:55;;;;;;;13.18;7.10;;;-0.60;99.90;;;;;;5055819;28;20033;-60
2022/03/08 04:49:21;;;;;;;18.08;7.85;;;-1.10;99.90;;;;;;5054632;28;20118;-60
2022/03/08 04:51:47;;;;;;;17.05;7.90;;;0.80;99.90;;;;;;5055639;28;20468;-60
2022/03/08 04:54:12;;;;;;;13.63;8.02;;;0.00;99.90;;;;;;5055653;28;20373;-60
2022/03/08 04:56:38;;;;;;;16.90;7.35;;;-0.60;99.90;;;;;;5054181;28;20029;-60
2022/03/08 04:59:04;;;;;;;14.57;7.63;;;-1.20;99.90;;;;;;5055399;28;20060;-60
2022/03/08 05:01:29;;;;;;;17.00;7.55;;;-0.70;99.90;;;;;;5055711;28;20075;-60
2022/03/08 05:03:55;;;;;;;15.20;7.25;;;-1.20;99.90;;;;;;5055375;28;20192;-60
2022/03/08 05:06:21;;;;;;;17.50;7.47;;;-1.30;99.90;;;;;;5055126;28;20044;-60
2022/03/08 05:08:46;;;;;;;12.27;6.72;;;-1.30;99.90;;;;;;5055226;28;20029;-60
2022/03/08 05:11:13;;;;;;;12.15;6.63;;;0.20;99.90;;;;;;5055109;28;20021;-60
2022/03/08 05:13:38;;;;;;;15.63;7.25;;;-0.80;99.90;;;;;;5055229;28;20029;-60
2022/03/08 05:16:05;;;;;;;13.15;6.95;;;-1.30;99.90;;;;;;5055650;28;20502;-60
2022/03/08 05:18:31;;;;;;;15.05;7.40;;;0.70;99.90;;;;;;5055208;28;20025;-60
2022/03/08 05:20:57;;;;;;;16.45;7.88;;;-1.40;99.90;;;;;;5055039;28;20017;-61
2022/03/08 05:23:23;;;;;;;15.02;6.28;;;-1.50;99.90;;;;;;5055288;28;20343;-60
2022/03/08 05:25:49;;;;;;;14.40;7.00;;;-1.60;99.90;;;;;;5055228;28;20025;-60
2022/03/08 05:28:14;;;;;;;18.23;8.15;;;-1.70;99.90;;;;;;5055193;28;20090;-60
2022/03/08 05:30:41;;;;;;;19.95;8.23;;;0.40;99.90;;;;;;5054852;28;20469;-60
2022/03/08 05:33:06;;;;;;;16.90;7.63;;;-0.70;99.90;;;;;;5054925;28;20027;-61
2022/03/08 05:35:32;;;;;;;24.73;9.30;;;-1.90;99.90;;;;;;5053515;28;20032;-60
2022/03/08 05:37:58;;;;;;;23.30;8.55;;;-1.90;99.90;;;;;;5054724;28;20417;-61
2022/03/08 05:40:23;;;;;;;21.33;8.52;;;-1.90;99.90;;;;;;5054753;28;20029;-61
2022/03/08 05:42:49;;;;;;;18.73;7.78;;;-0.30;99.90;;;;;;5053686;28;20074;-61
2022/03/08 05:45:15;;;;;;;15.30;7.82;;;-1.80;99.90;;;;;;5053837;28;20033;-61
2022/03/08 05:47:42;;;;;;;15.02;7.13;;;-1.20;99.90;;;;;;5053293;28;20098;-61
2022/03/08 05:50:10;;;;;;;19.10;8.18;;;-1.50;99.90;;;;;;5054492;28;20031;-60
2022/03/08 05:52:35;;;;;;;18.85;7.97;;;-1.40;99.90;;;;;;5054454;28;20033;-60
2022/03/08 05:55:01;;;;;;;16.05;8.18;;;0.90;99.90;;;;;;5053180;28;20029;-60
2022/03/08 05:57:27;;;;;;;18.63;7.55;;;-1.30;99.90;;;;;;5053262;28;20533;-60
2022/03/08 05:59:52;;;;;;;17.20;7.90;;;-0.50;99.90;;;;;;5054565;28;20025;-60
2022/03/08 06:02:19;;;;;;;16.67;8.15;;;-0.90;99.90;;;;;;5052704;28;20061;-60
2022/03/08 06:04:45;;;;;;;18.15;7.72;;;-1.00;99.90;;;;;;5052994;28;20025;-60
2022/03/08 06:07:11;;;;;;;12.88;6.95;;;-0.80;99.90;;;;;;5054110;28;20056;-60
2022/03/08 06:09:37;;;;;;;14.45;7.45;;;0.10;99.90;;;;;;5053856;28;20035;-61
2022/03/08 06:12:03;;;;;;;13.90;7.22;;;-0.60;99.90;;;;;;5054066;28;20051;-61
2022/03/08 06:14:29;;;;;;;17.52;8.18;;;-0.60;99.90;;;;;;5054073;28;20019;-62
2022/03/08 06:16:55;;;;;;;16.08;7.07;;;-0.40;99.90;;;;;;5052698;28;20111;-61
2022/03/08 06:19:20;;;;;;;16.17;7.68;;;-0.40;99.90;;;;;;5053997;28;20099;-62
2022/03/08 06:21:46;;;;;;;10.65;6.85;;;0.60;99.90;;;;;;5054216;28;20087;-62
2022/03/08 06:24:13;;;;;;;12.60;6.90;;;-0.10;99.90;;;;;;5054503;28;20044;-61
2022/03/08 06:26:39;;;;;;;13.82;7.70;;;-0.10;99.90;;;;;;5052362;28;20124;-61
2022/03/08 06:29:05;;;;;;;15.77;6.70;;;0.00;99.90;;;;;;5052554;28;20116;-61
2022/03/08 06:31:49;;;;;;;14.30;7.65;;;0.20;99.90;;;;;;5053260;28;20025;-61
2022/03/08 06:34:15;;;;;;;14.90;6.78;;;0.40;99.90;;;;;;5054036;28;20108;-61
2022/03/08 06:36:41;;;;;;;13.75;6.97;;;0.60;99.90;;;;;;5052382;28;20108;-61
2022/03/08 06:39:07;;;;;;;14.35;8.07;;;0.90;99.90;;;;;;5053746;28;20112;-61
2022/03/08 06:41:33;;;;;;;11.95;6.70;;;1.20;99.90;;;;;;5052359;28;20132;-60
2022/03/08 06:44:02;;;;;;;16.80;8.75;;;1.50;99.90;;;;;;5053653;28;20021;-60
2022/03/08 06:46:27;;;;;;;12.75;6.82;;;1.70;99.90;;;;;;5053538;28;20078;-61
2022/03/08 06:48:53;;;;;;;13.77;7.40;;;1.70;99.90;;;;;;5052164;28;20120;-60
2022/03/08 06:51:19;;;;;;;11.15;6.70;;;1.80;99.90;;;;;;5052043;28;20056;-61
2022/03/08 06:53:45;;;;;;;12.43;7.25;;;1.80;99.90;;;;;;5053682;28;20029;-61
2022/03/08 06:56:10;;;;;;;10.02;6.68;;;1.90;99.90;;;;;;5053541;28;20036;-61
2022/03/08 06:58:36;;;;;;;13.27;6.95;;;2.00;99.90;;;;;;5053617;28;20036;-61
2022/03/08 07:01:02;;;;;;;13.15;7.30;;;2.10;99.90;;;;;;5053912;28;20492;-60
2022/03/08 07:03:27;;;;;;;13.32;7.05;;;2.10;99.90;;;;;;5053779;28;20453;-60
2022/03/08 07:05:53;;;;;;;13.25;7.15;;;2.20;99.90;;;;;;5053582;28;20032;-61
2022/03/08 07:08:19;;;;;;;17.42;7.40;;;2.30;99.90;;;;;;5053008;28;20485;-60
2022/03/08 07:10:45;;;;;;;12.90;6.82;;;2.50;99.90;;;;;;5052070;28;20134;-63
2022/03/08 07:13:11;;;;;;;10.35;6.75;;;2.80;99.90;;;;;;5051902;28;20131;-60
2022/03/08 07:15:37;;;;;;;13.10;6.50;;;3.00;99.90;;;;;;5052116;28;20060;-60
2022/03/08 07:18:03;;;;;;;13.80;7.10;;;3.30;99.90;;;;;;5051805;28;20029;-60
2022/03/08 07:20:29;;;;;;;13.27;7.13;;;3.50;99.90;;;;;;5052134;28;20021;-61
2022/03/08 07:22:54;;;;;;;11.13;6.68;;;3.70;99.90;;;;;;5054061;28;20025;-60
2022/03/08 07:25:20;;;;;;;16.77;7.20;;;4.00;99.50;;;;;;5056986;28;20029;-60
2022/03/08 07:27:46;;;;;;;11.20;6.82;;;4.10;99.00;;;;;;5057200;28;20025;-60
2022/03/08 07:30:12;;;;;;;14.45;7.65;;;4.10;99.00;;;;;;5057456;28;20472;-61
2022/03/08 07:32:37;;;;;;;10.05;6.68;;;4.50;98.50;;;;;;5056048;28;20025;-60
2022/03/08 07:35:05;;;;;;;11.90;6.38;;;4.70;97.50;;;;;;5055741;28;20075;-61
2022/03/08 07:37:35;;;;;;;10.10;6.40;;;5.10;96.60;;;;;;5055778;28;20124;-61
2022/03/08 07:40:03;;;;;;;10.80;6.05;;;5.30;95.60;;;;;;5057009;28;20032;-60
2022/03/08 07:42:30;;;;;;;10.70;5.80;;;5.40;95.30;;;;;;5056950;28;20384;-61
2022/03/08 07:44:55;;;;;;;11.32;6.32;;;5.60;94.40;;;;;;5057036;28;20040;-60
2022/03/08 07:47:21;;;;;;;10.80;6.25;;;5.90;93.60;;;;;;5056588;28;20021;-60
2022/03/08 07:49:47;;;;;;;11.75;6.68;;;6.20;92.50;;;;;;5056522;28;20029;-61
2022/03/08 07:52:13;;;;;;;10.10;6.47;;;6.40;91.70;;;;;;5055182;28;20029;-61
2022/03/08 07:54:38;;;;;;;11.05;6.70;;;6.60;90.70;;;;;;5057562;28;20091;-60
2022/03/08 07:57:04;;;;;;;11.15;5.88;;;6.70;88.60;;;;;;5056579;28;20037;-60
2022/03/08 07:59:30;;;;;;;10.15;5.90;;;7.10;88.50;;;;;;5056746;28;20079;-60
2022/03/08 08:01:56;;;;;;;12.32;6.28;;;7.30;85.70;;;;;;5056461;28;20082;-61
2022/03/08 08:04:23;;;;;;;13.48;6.57;;;7.50;81.40;;;;;;5056577;28;20025;-60
2022/03/08 08:06:49;;;;;;;9.63;5.80;;;7.20;81.90;;;;;;5056375;28;20049;-60
2022/03/08 08:09:15;;;;;;;10.88;6.13;;;6.90;85.00;;;;;;5056460;28;20043;-60
2022/03/08 08:11:40;;;;;;;10.07;5.80;;;6.60;87.20;;;;;;5056814;28;20039;-60
2022/03/08 08:14:06;;;;;;;14.88;6.70;;;6.40;89.90;;;;;;5055083;28;20040;-60
2022/03/08 08:16:32;;;;;;;11.98;6.75;;;5.90;91.10;;;;;;5056239;28;20055;-60
2022/03/08 08:18:58;;;;;;;16.88;7.47;;;5.60;92.50;;;;;;5054990;28;20037;-60
2022/03/08 08:21:24;;;;;;;11.63;6.25;;;5.10;94.00;;;;;;5056311;28;20025;-60
2022/03/08 08:23:50;;;;;;;12.77;6.88;;;4.90;95.00;;;;;;5056179;28;20021;-60
2022/03/08 08:26:16;;;;;;;12.45;6.55;;;4.90;95.80;;;;;;5054562;28;20440;-60
2022/03/08 08:28:42;;;;;;;12.02;6.70;;;5.40;95.50;;;;;;5055889;28;20032;-61
2022/03/08 08:31:07;;;;;;;10.25;5.60;;;6.10;93.70;;;;;;5056343;28;20335;-60
2022/03/08 08:33:34;;;;;;;11.60;5.57;;;6.60;91.80;;;;;;5053382;28;20127;-60
2022/03/08 08:36:00;;;;;;;9.10;6.05;;;7.00;90.20;;;;;;5055433;28;20429;-60
2022/03/08 08:38:25;;;;;;;12.73;5.95;;;7.20;88.80;;;;;;5055914;28;20099;-60
2022/03/08 08:40:51;;;;;;;10.35;6.50;;;7.30;86.50;;;;;;5055874;28;20048;-60
2022/03/08 08:43:17;;;;;;;10.63;6.28;;;7.60;82.80;;;;;;5055784;28;20079;-60
2022/03/08 08:45:43;;;;;;;12.50;6.53;;;7.60;84.30;;;;;;5056002;28;20029;-60
2022/03/08 08:48:09;;;;;;;10.02;6.18;;;8.00;81.60;;;;;;5054421;28;20385;-60
2022/03/08 08:50:36;;;;;;;10.90;6.18;;;8.20;78.90;;;;;;5054371;28;20029;-60
2022/03/08 08:53:02;;;;;;;11.40;6.70;;;8.40;76.10;;;;;;5055629;28;20025;-61
2022/03/08 08:55:28;;;;;;;8.60;6.13;;;8.70;73.30;;;;;;5055585;28;20086;-60
2022/03/08 08:57:54;;;;;;;11.48;6.55;;;8.60;71.40;;;;;;5055648;28;20164;-60
2022/03/08 09:00:19;;;;;;;12.98;6.45;;;8.40;71.50;;;;;;5055506;28;20113;-60
2022/03/08 09:02:45;;;;;;;9.80;6.18;;;8.00;73.60;;;;;;5055514;28;20495;-60
2022/03/08 09:05:14;;;;;;;9.07;5.75;;;7.90;74.80;;;;;;5055405;28;20064;-60
2022/03/08 09:07:40;;;;;;;14.40;6.25;;;8.00;75.00;;;;;;5055622;28;20045;-60
2022/03/08 09:10:07;;;;;;;11.48;6.43;;;8.00;76.00;;;;;;5055062;28;20039;-60
2022/03/08 09:12:33;;;;;;;11.85;6.82;;;8.60;72.40;;;;;;5053995;28;20028;-60
2022/03/08 09:15:00;;;;;;;9.48;6.63;;;8.90;70.80;;;;;;5055167;28;20029;-60
2022/03/08 09:17:26;;;;;;;13.30;6.55;;;10.60;68.90;;;;;;5054820;28;20381;-60
2022/03/08 09:19:51;;;;;;;12.30;6.85;;;9.00;66.90;;;;;;5055135;28;20027;-60
2022/03/08 09:22:17;;;;;;;10.88;6.30;;;8.50;69.00;;;;;;5054820;28;20029;-60
2022/03/08 09:24:43;;;;;;;10.10;6.22;;;8.70;69.30;;;;;;5055329;28;20032;-60
2022/03/08 09:27:09;;;;;;;14.50;6.80;;;9.10;67.70;;;;;;5054858;28;20032;-60
2022/03/08 09:29:34;;;;;;;10.70;6.05;;;9.30;66.40;;;;;;5053728;28;20028;-60
2022/03/08 09:32:00;;;;;;;11.30;6.18;;;9.50;66.20;;;;;;5055092;28;20024;-60
2022/03/08 09:34:26;;;;;;;12.65;6.55;;;10.00;63.90;;;;;;5055354;28;20441;-60
2022/03/08 09:36:52;;;;;;;10.15;6.03;;;10.40;61.40;;;;;;5054450;28;20377;-60
2022/03/08 09:39:18;;;;;;;9.73;5.68;;;10.70;59.00;;;;;;5055378;28;20029;-60
2022/03/08 09:41:43;;;;;;;8.90;5.47;;;11.00;56.70;;;;;;5055026;28;20410;-60
2022/03/08 09:44:14;;;;;;;11.35;6.45;;;11.00;56.90;;;;;;5053401;28;20488;-61
2022/03/08 09:46:41;;;;;;;8.85;5.57;;;11.20;55.30;;;;;;5052962;28;20029;-61
2022/03/08 09:49:07;;;;;;;11.80;6.05;;;11.60;55.60;;;;;;5053266;28;20035;-61
2022/03/08 09:51:37;;;;;;;11.07;5.35;;;11.90;52.40;;;;;;5054539;28;20025;-61
2022/03/08 09:54:03;;;;;;;9.25;5.18;;;11.60;52.80;;;;;;5054415;28;20075;-61
2022/03/08 09:56:29;;;;;;;9.43;5.22;;;11.90;52.90;;;;;;5054385;28;20090;-61
2022/03/08 09:58:55;;;;;;;9.82;5.70;;;12.40;50.20;;;;;;5054377;28;20032;-61
2022/03/08 10:01:21;;;;;;;11.20;6.57;;;12.30;50.10;;;;;;5054552;28;20029;-60
2022/03/08 10:03:49;;;;;;;12.20;6.07;;;12.10;50.10;;;;;;5054387;28;20052;-60
2022/03/08 10:06:15;;;;;;;13.15;6.05;;;12.00;50.50;;;;;;5053878;28;20432;-61
2022/03/08 10:08:41;;;;;;;10.82;6.03;;;11.80;50.60;;;;;;5054435;28;20071;-60
2022/03/08 10:11:11;;;;;;;13.23;6.20;;;11.40;51.80;;;;;;5054198;28;20025;-60
2022/03/08 10:13:42;;;;;;;10.55;5.47;;;11.90;50.70;;;;;;5054505;28;20029;-60
2022/03/08 10:16:11;;;;;;;11.75;5.88;;;12.60;48.90;;;;;;5054332;28;20033;-60
2022/03/08 10:18:48;;;;;;;12.02;6.53;;;12.20;48.90;;;;;;5054042;28;20099;-60
2022/03/08 10:21:42;;;;;;;11.23;6.32;;;11.80;49.40;;;;;;5054488;28;20040;-60
2022/03/08 10:24:15;;;;;;;9.75;5.70;;;11.40;50.40;;;;;;5053131;28;20021;-60
2022/03/08 10:26:53;;;;;;;7.50;5.47;;;11.70;50.10;;;;;;5053082;28;20033;-60
2022/03/08 10:29:37;;;;;;;9.05;5.50;;;11.70;49.50;;;;;;5053931;28;20075;-60
2022/03/08 10:32:21;;;;;;;6.47;4.68;;;11.80;49.70;;;;;;5052268;28;20036;-61
2022/03/08 10:34:55;;;;;;;7.88;3.63;;;12.40;48.30;;;;;;5053588;28;20550;-61
2022/03/08 10:37:24;;;;;;;6.07;3.50;;;13.20;44.50;;;;;;5054141;28;20128;-60
2022/03/08 10:40:03;;;;;;;5.18;2.47;;;13.40;43.80;;;;;;5054129;28;20420;-60
2022/03/08 10:42:38;;;;;;;3.78;2.40;;;14.20;38.90;;;;;;5053847;28;20109;-61
2022/03/08 10:45:08;;;;;;;4.97;2.95;;;14.30;38.60;;;;;;5053322;28;20388;-61
2022/03/08 10:47:53;;;;;;;4.30;2.80;;;15.20;38.10;;;;;;5053409;28;20025;-61
2022/03/08 10:50:23;;;;;;;4.63;2.78;;;15.80;36.60;;;;;;5053616;28;20020;-61
2022/03/08 10:52:51;;;;;;;7.63;3.83;;;15.80;35.80;;;;;;5052231;28;20033;-61
2022/03/08 10:55:19;;;;;;;4.93;3.77;;;15.60;36.70;;;;;;5053576;28;20211;-61
2022/03/08 10:57:51;;;;;;;6.33;3.23;;;16.40;36.80;;;;;;5055376;28;20263;-61
2022/03/08 11:00:23;;;;;;;8.45;3.35;;;16.20;35.70;;;;;;5057719;28;20504;-61
2022/03/08 11:03:03;;;;;;;6.65;3.92;;;16.30;35.70;;;;;;5056385;28;20029;-61
2022/03/08 11:05:31;;;;;;;5.22;3.85;;;16.10;35.70;;;;;;5057584;28;20033;-61
2022/03/08 11:07:57;;;;;;;6.28;3.90;;;16.10;36.10;;;;;;5057977;28;20127;-61
2022/03/08 11:10:28;;;;;;;6.95;4.07;;;16.10;35.70;;;;;;5057510;28;20461;-61
2022/03/08 11:12:54;;;;;;;7.32;3.47;;;15.80;35.60;;;;;;5057763;28;20029;-60
2022/03/08 11:15:21;;;;;;;6.13;4.03;;;15.90;36.20;;;;;;5057318;28;20086;-61
2022/03/08 11:17:50;;;;;;;7.28;4.35;;;15.20;36.90;;;;;;5057018;28;20033;-60
2022/03/08 11:20:17;;;;;;;6.43;4.43;;;13.90;38.10;;;;;;5057372;28;20457;-60
2022/03/08 11:22:44;;;;;;;7.47;4.30;;;11.90;41.10;;;;;;5057370;28;20082;-60
2022/03/08 11:25:12;;;;;;;7.20;4.25;;;11.60;43.10;;;;;;5057285;28;20346;-60
2022/03/08 11:27:41;;;;;;;7.88;4.45;;;12.80;42.30;;;;;;5057269;28;20380;-60
2022/03/08 11:30:11;;;;;;;8.60;4.50;;;13.30;40.60;;;;;;5057499;28;20112;-60
2022/03/08 11:32:49;;;;;;;7.47;4.57;;;12.00;42.40;;;;;;5057342;28;20456;-60
2022/03/08 11:35:22;;;;;;;9.52;4.20;;;11.50;44.20;;;;;;5056813;28;20388;-60
2022/03/08 11:37:50;;;;;;;6.70;4.70;;;10.70;45.80;;;;;;5055858;28;20060;-60
2022/03/08 11:40:19;;;;;;;10.60;5.30;;;11.30;47.00;;;;;;5055796;28;20201;-60
2022/03/08 11:42:50;;;;;;;8.18;4.43;;;12.80;44.40;;;;;;5057026;28;20028;-60
2022/03/08 11:45:24;;;;;;;8.82;4.30;;;13.40;41.60;;;;;;5056795;28;20397;-60
2022/03/08 11:47:57;;;;;;;7.05;3.95;;;12.10;43.10;;;;;;5056874;28;20017;-61
2022/03/08 11:50:36;;;;;;;8.10;4.25;;;11.50;44.80;;;;;;5057054;28;20025;-61
2022/03/08 11:55:34;;;;;;;7.90;4.20;;;10.70;45.60;;;;;;5056645;28;20036;-60
2022/03/08 11:58:11;;;;;;;6.40;3.25;;;10.80;46.20;;;;;;5056753;28;20053;-61
2022/03/08 12:00:36;;;;;;;4.32;3.20;;;12.40;43.80;;;;;;5055131;28;20025;-60
2022/03/08 12:03:06;;;;;;;4.80;3.08;;;13.30;41.50;;;;;;5056801;28;20032;-60
2022/03/08 12:05:46;;;;;;;4.80;2.80;;;14.00;39.30;;;;;;5055659;28;20366;-60
2022/03/08 12:08:27;;;;;;;5.82;2.70;;;13.20;38.80;;;;;;5055937;28;20096;-61
2022/03/08 12:10:58;;;;;;;4.70;2.47;;;11.90;40.10;;;;;;5056446;28;20078;-60
2022/03/08 12:13:27;;;;;;;5.07;2.22;;;12.30;41.00;;;;;;5056540;28;20021;-55
2022/03/08 12:16:25;;;;;;;4.03;2.15;;;12.00;43.90;;;;;;5056311;28;20464;-65
2022/03/08 12:18:53;;;;;;;6.05;2.60;;;12.30;40.50;;;;;;5057752;28;20029;-72
2022/03/08 12:21:22;;;;;;;3.70;2.35;;;12.60;40.30;;;;;;5059362;28;20036;-72
2022/03/08 12:23:52;;;;;;;4.05;2.67;;;12.90;38.80;;;;;;5059265;28;20025;-61
2022/03/08 12:26:45;;;;;;;5.40;2.80;;;12.40;39.40;;;;;;5056470;28;20067;-61
2022/03/08 12:29:21;;;;;;;4.28;2.63;;;13.30;38.90;;;;;;5054877;28;20033;-61
2022/03/08 12:32:01;;;;;;;4.03;2.80;;;14.00;38.50;;;;;;5055995;28;20040;-61
2022/03/08 12:34:36;;;;;;;4.85;2.75;;;14.60;37.20;;;;;;5054708;28;20068;-61
2022/03/08 12:37:26;;;;;;;7.03;3.28;;;14.50;36.20;;;;;;5055829;28;20033;-61
2022/03/08 12:39:58;;;;;;;5.95;3.33;;;12.60;38.60;;;;;;5056145;28;20074;-61
2022/03/08 12:42:34;;;;;;;7.93;3.60;;;11.40;39.90;;;;;;5054785;28;20079;-61
2022/03/08 12:45:17;;;;;;;6.18;3.40;;;10.60;40.70;;;;;;5055825;28;20485;-61
2022/03/08 12:47:42;;;;;;;6.18;3.58;;;10.50;41.90;;;;;;5054927;28;20369;-61